Time;durP1;ratioP1;P1;durP2;ratioP2;P2;SDS_P1;SDS_P2;PMS_P1;PMS_P2;Temp;Humidity;BMP_temperature;BMP_pressure;BME280_temperature;BME280_humidity;BME280_pressure;Samples;Min_cycle;Max_cycle;Signal;HPM_P1;HPM_P2
2024/01/12 00:02:12;;;;;;;22.80;12.00;;;;;;;-2.04;100.00;101772.17;105405;1257;81725;-52
2024/01/12 00:04:41;;;;;;;25.90;11.60;;;;;;;-2.03;100.00;101770.49;105293;1257;73757;-50
2024/01/12 00:07:09;;;;;;;21.70;12.30;;;;;;;-2.02;100.00;101771.73;105301;1258;70318;-51
2024/01/12 00:09:37;;;;;;;21.50;10.80;;;;;;;-2.00;100.00;101780.70;105308;1259;69948;-51
2024/01/12 00:12:06;;;;;;;20.10;11.30;;;;;;;-2.00;100.00;101778.64;105313;1257;73915;-51
2024/01/12 00:14:34;;;;;;;20.90;11.80;;;;;;;-1.99;100.00;101777.16;105349;1257;81585;-50
2024/01/12 00:17:03;;;;;;;26.10;12.20;;;;;;;-1.97;100.00;101777.91;105298;1259;73715;-53
2024/01/12 00:19:31;;;;;;;20.30;11.00;;;;;;;-1.96;100.00;101781.00;105322;1259;69895;-54
2024/01/12 00:21:59;;;;;;;19.50;10.60;;;;;;;-1.96;100.00;101784.60;105263;1259;70021;-54
2024/01/12 00:24:27;;;;;;;24.20;11.30;;;;;;;-1.95;100.00;101790.30;105409;1257;75135;-51
2024/01/12 00:26:55;;;;;;;20.00;10.40;;;;;;;-1.94;100.00;101798.74;105300;1259;83727;-48
2024/01/12 00:29:24;;;;;;;20.20;10.70;;;;;;;-1.94;100.00;101805.77;105305;1259;73133;-49
2024/01/12 00:31:53;;;;;;;25.20;12.10;;;;;;;-1.92;100.00;101806.16;105310;1257;70024;-49
2024/01/12 00:34:21;;;;;;;20.10;11.00;;;;;;;-1.91;100.00;101803.98;105291;1255;69990;-51
2024/01/12 00:36:53;;;;;;;22.30;11.90;;;;;;;-1.91;100.00;101802.64;105381;1257;73267;-50
2024/01/12 00:39:21;;;;;;;17.90;10.40;;;;;;;-1.90;100.00;101802.14;105343;1257;82728;-49
2024/01/12 00:41:52;;;;;;;21.60;11.30;;;;;;;-1.89;100.00;101809.20;105290;1259;72464;-48
2024/01/12 00:44:21;;;;;;;24.60;11.60;;;;;;;-1.89;100.00;101808.17;105316;1256;69868;-49
2024/01/12 00:46:50;;;;;;;19.90;11.50;;;;;;;-1.88;100.00;101799.46;105314;1259;70012;-49
2024/01/12 00:49:20;;;;;;;20.50;11.80;;;;;;;-1.86;100.00;101803.98;105317;1259;74041;-48
2024/01/12 00:51:49;;;;;;;21.40;11.10;;;;;;;-1.85;100.00;101807.13;105322;1259;79994;-49
2024/01/12 00:54:17;;;;;;;23.10;12.20;;;;;;;-1.85;100.00;101806.10;105269;1259;70990;-50
2024/01/12 00:56:45;;;;;;;20.50;11.30;;;;;;;-1.85;100.00;101808.34;105191;1256;69956;-49
2024/01/12 00:59:13;;;;;;;23.50;12.40;;;;;;;-1.85;100.00;101805.41;105337;1259;69989;-50
2024/01/12 01:01:41;;;;;;;22.20;12.00;;;;;;;-1.85;100.00;101808.67;105269;1257;73511;-49
2024/01/12 01:04:09;;;;;;;23.60;13.00;;;;;;;-1.84;100.00;101810.23;105265;1259;82816;-49
2024/01/12 01:06:37;;;;;;;21.60;12.10;;;;;;;-1.85;100.00;101807.66;105300;1255;70662;-49
2024/01/12 01:09:06;;;;;;;22.30;12.20;;;;;;;-1.86;100.00;101809.67;105259;1258;70082;-49
2024/01/12 01:11:34;;;;;;;21.80;11.50;;;;;;;-1.88;100.00;101809.59;105294;1259;69995;-47
2024/01/12 01:14:02;;;;;;;21.50;11.70;;;;;;;-1.88;100.00;101813.36;105276;1257;74025;-49
2024/01/12 01:16:30;;;;;;;22.10;12.20;;;;;;;-1.87;100.00;101808.45;105230;1259;81560;-49
2024/01/12 01:18:59;;;;;;;23.30;12.50;;;;;;;-1.84;100.00;101810.75;105161;1259;71906;-48
2024/01/12 01:21:27;;;;;;;22.30;12.90;;;;;;;-1.84;100.00;101807.52;105345;1259;69929;-50
2024/01/12 01:23:56;;;;;;;22.20;11.40;;;;;;;-1.83;100.00;101806.88;105275;1259;69807;-55
2024/01/12 01:26:24;;;;;;;22.70;12.20;;;;;;;-1.82;100.00;101814.27;105329;1257;75680;-54
2024/01/12 01:28:52;;;;;;;24.50;12.70;;;;;;;-1.82;100.00;101813.06;105282;1259;81454;-55
2024/01/12 01:31:20;;;;;;;23.50;13.50;;;;;;;-1.82;100.00;101815.80;105267;1255;71532;-53
2024/01/12 01:33:48;;;;;;;20.90;11.80;;;;;;;-1.82;100.00;101816.31;105233;1255;69256;-56
2024/01/12 01:36:17;;;;;;;22.20;13.00;;;;;;;-1.81;100.00;101820.13;105148;1259;69292;-55
2024/01/12 01:38:45;;;;;;;25.10;13.10;;;;;;;-1.80;100.00;101819.81;105126;1257;73879;-55
2024/01/12 01:41:13;;;;;;;27.50;12.80;;;;;;;-1.81;100.00;101820.96;105225;1259;81672;-56
2024/01/12 01:43:41;;;;;;;23.10;13.30;;;;;;;-1.82;100.00;101820.44;105221;1257;71851;-56
2024/01/12 01:46:10;;;;;;;23.70;13.50;;;;;;;-1.82;100.00;101822.14;105253;1257;69147;-56
2024/01/12 01:48:38;;;;;;;25.20;13.80;;;;;;;-1.81;100.00;101826.79;105232;1259;69180;-56
2024/01/12 01:51:06;;;;;;;25.80;12.90;;;;;;;-1.81;100.00;101827.82;105168;1257;72458;-54
2024/01/12 01:53:34;;;;;;;28.60;14.60;;;;;;;-1.80;100.00;101823.58;105248;1257;82864;-54
2024/01/12 01:56:03;;;;;;;29.30;14.30;;;;;;;-1.80;100.00;101828.03;105360;1259;72514;-55
2024/01/12 01:58:34;;;;;;;28.70;14.30;;;;;;;-1.80;100.00;101826.70;105234;1261;69258;-58
2024/01/12 02:01:02;;;;;;;28.90;14.40;;;;;;;-1.80;100.00;101829.23;105289;1257;69188;-56
2024/01/12 02:03:32;;;;;;;26.10;13.40;;;;;;;-1.81;100.00;101829.20;105373;1257;74080;-61
2024/01/12 02:06:01;;;;;;;25.70;13.60;;;;;;;-1.81;100.00;101830.23;105336;1259;81470;-58
2024/01/12 02:08:30;;;;;;;29.90;14.70;;;;;;;-1.80;100.00;101834.55;105359;1259;72080;-55
2024/01/12 02:10:58;;;;;;;30.40;15.00;;;;;;;-1.82;100.00;101835.50;105287;1257;69213;-55
2024/01/12 02:13:26;;;;;;;29.20;13.20;;;;;;;-1.84;100.00;101832.17;105311;1259;69592;-55
2024/01/12 02:15:55;;;;;;;34.40;15.40;;;;;;;-1.85;100.00;101834.38;105296;1257;74051;-55
2024/01/12 02:18:23;;;;;;;29.90;14.80;;;;;;;-1.87;100.00;101833.27;105336;1259;81557;-55
2024/01/12 02:20:56;;;;;;;30.40;14.40;;;;;;;-1.87;100.00;101830.86;105263;1259;71662;-56
2024/01/12 02:23:24;;;;;;;32.20;14.70;;;;;;;-1.87;100.00;101833.93;105271;1259;69282;-55
2024/01/12 02:25:52;;;;;;;31.50;15.30;;;;;;;-1.88;100.00;101830.48;105273;1259;69193;-55
2024/01/12 02:28:21;;;;;;;28.30;14.20;;;;;;;-1.89;100.00;101832.35;105240;1257;75204;-55
2024/01/12 02:30:49;;;;;;;32.50;15.30;;;;;;;-1.87;100.00;101832.05;105272;1257;81372;-55
2024/01/12 02:33:17;;;;;;;29.10;14.30;;;;;;;-1.88;100.00;101827.40;105246;1257;71675;-55
2024/01/12 02:35:46;;;;;;;34.40;15.40;;;;;;;-1.87;100.00;101826.92;105249;1257;69153;-54
2024/01/12 02:38:14;;;;;;;32.10;15.00;;;;;;;-1.86;100.00;101820.95;105338;1257;69179;-55
2024/01/12 02:40:42;;;;;;;31.80;15.90;;;;;;;-1.86;100.00;101820.48;105224;1259;73852;-55
2024/01/12 02:43:10;;;;;;;34.70;15.30;;;;;;;-1.85;100.00;101818.94;105237;1259;80772;-55
2024/01/12 02:45:38;;;;;;;34.00;16.00;;;;;;;-1.84;100.00;101815.38;105243;1257;71820;-56
2024/01/12 02:48:06;;;;;;;33.70;16.30;;;;;;;-1.82;100.00;101814.92;105263;1259;69133;-56
2024/01/12 02:50:35;;;;;;;33.30;15.20;;;;;;;-1.83;100.00;101819.04;105300;1259;69163;-54
2024/01/12 02:53:03;;;;;;;33.60;14.90;;;;;;;-1.81;100.00;101820.61;105263;1257;74303;-55
2024/01/12 02:55:32;;;;;;;38.70;16.60;;;;;;;-1.80;100.00;101823.41;105351;1259;82084;-55
2024/01/12 02:58:00;;;;;;;39.30;15.90;;;;;;;-1.79;100.00;101822.06;105276;1255;70763;-55
2024/01/12 03:00:30;;;;;;;38.40;16.10;;;;;;;-1.79;100.00;101821.04;105298;1259;69135;-55
2024/01/12 03:02:59;;;;;;;38.00;16.90;;;;;;;-1.78;100.00;101819.52;105311;1259;69192;-55
2024/01/12 03:05:27;;;;;;;37.10;17.20;;;;;;;-1.78;100.00;101813.88;105321;1255;75613;-55
2024/01/12 03:07:55;;;;;;;41.70;16.90;;;;;;;-1.77;100.00;101807.20;105252;1259;81773;-54
2024/01/12 03:10:24;;;;;;;40.90;17.80;;;;;;;-1.76;100.00;101808.80;105288;1257;71207;-55
2024/01/12 03:12:52;;;;;;;52.00;20.30;;;;;;;-1.77;100.00;101806.86;105329;1259;69140;-55
2024/01/12 03:15:20;;;;;;;44.60;19.20;;;;;;;-1.76;100.00;101806.05;105274;1258;69186;-55
2024/01/12 03:17:48;;;;;;;48.70;18.60;;;;;;;-1.76;100.00;101804.19;105273;1257;74760;-54
2024/01/12 03:20:17;;;;;;;45.20;18.80;;;;;;;-1.77;100.00;101805.50;105401;1259;81018;-55
2024/01/12 03:22:45;;;;;;;36.90;16.20;;;;;;;-1.78;100.00;101808.39;105262;1257;72729;-55
2024/01/12 03:25:13;;;;;;;40.70;17.30;;;;;;;-1.78;100.00;101804.80;105303;1259;69116;-55
2024/01/12 03:27:41;;;;;;;39.60;17.00;;;;;;;-1.77;100.00;101798.47;105286;1257;69273;-55
2024/01/12 03:30:10;;;;;;;40.40;18.60;;;;;;;-1.78;100.00;101798.11;105302;1257;72877;-55
2024/01/12 03:32:39;;;;;;;46.40;18.40;;;;;;;-1.77;100.00;101799.16;105285;1257;81640;-54
2024/01/12 03:35:07;;;;;;;43.60;18.80;;;;;;;-1.77;100.00;101800.73;105349;1257;71750;-55
2024/01/12 03:37:36;;;;;;;42.40;17.20;;;;;;;-1.76;100.00;101800.94;105289;1259;69128;-57
2024/01/12 03:40:04;;;;;;;42.40;17.60;;;;;;;-1.75;100.00;101794.27;105394;1259;69269;-61
2024/01/12 03:42:32;;;;;;;49.20;19.60;;;;;;;-1.76;100.00;101791.85;105403;1258;73816;-57
2024/01/12 03:45:01;;;;;;;43.10;17.80;;;;;;;-1.76;100.00;101793.55;105301;1257;80462;-57
2024/01/12 03:47:29;;;;;;;42.10;17.40;;;;;;;-1.76;100.00;101797.49;105314;1257;72113;-58
2024/01/12 03:49:57;;;;;;;41.70;17.90;;;;;;;-1.76;100.00;101794.25;105263;1259;69124;-58
2024/01/12 03:52:26;;;;;;;42.80;17.60;;;;;;;-1.76;100.00;101791.33;105318;1259;69189;-56
2024/01/12 03:54:54;;;;;;;41.60;17.90;;;;;;;-1.76;100.00;101792.52;105265;1257;73881;-57
2024/01/12 03:57:23;;;;;;;48.20;20.00;;;;;;;-1.74;100.00;101803.91;105276;1259;81497;-55
2024/01/12 03:59:51;;;;;;;37.60;17.20;;;;;;;-1.74;100.00;101802.02;105357;1257;72924;-55
2024/01/12 04:02:19;;;;;;;45.00;17.70;;;;;;;-1.75;100.00;101805.40;105249;1259;69820;-56
2024/01/12 04:04:48;;;;;;;46.60;19.30;;;;;;;-1.75;100.00;101809.36;105289;1259;69236;-55
2024/01/12 04:07:17;;;;;;;49.50;18.70;;;;;;;-1.74;100.00;101808.17;105358;1257;73529;-54
2024/01/12 04:09:46;;;;;;;47.20;19.10;;;;;;;-1.75;100.00;101811.92;105327;1259;81723;-55
2024/01/12 04:12:14;;;;;;;46.80;18.50;;;;;;;-1.76;100.00;101817.40;105263;1257;70780;-55
2024/01/12 04:14:48;;;;;;;44.50;18.00;;;;;;;-1.76;100.00;101817.21;105259;1258;69175;-56
2024/01/12 04:17:16;;;;;;;43.90;18.70;;;;;;;-1.77;100.00;101814.61;105228;1260;69290;-54
2024/01/12 04:19:44;;;;;;;44.00;19.30;;;;;;;-1.76;100.00;101816.69;105380;1257;73796;-55
2024/01/12 04:22:12;;;;;;;44.10;17.50;;;;;;;-1.77;100.00;101815.98;105302;1259;82160;-55
2024/01/12 04:24:41;;;;;;;44.00;18.30;;;;;;;-1.77;100.00;101815.09;105311;1258;70306;-55
2024/01/12 04:27:09;;;;;;;40.60;17.40;;;;;;;-1.77;100.00;101817.02;105331;1259;69182;-55
2024/01/12 04:29:38;;;;;;;38.30;17.30;;;;;;;-1.79;100.00;101819.17;105370;1259;69251;-55
2024/01/12 04:32:06;;;;;;;40.00;16.70;;;;;;;-1.82;100.00;101814.76;105388;1257;73610;-55
2024/01/12 04:34:38;;;;;;;39.50;16.80;;;;;;;-1.84;100.00;101805.44;105293;1259;81421;-55
2024/01/12 04:37:06;;;;;;;36.50;16.30;;;;;;;-1.86;100.00;101809.34;105160;1257;71394;-56
2024/01/12 04:39:34;;;;;;;37.00;16.20;;;;;;;-1.85;100.00;101808.16;105226;1255;69118;-56
2024/01/12 04:42:03;;;;;;;37.10;16.50;;;;;;;-1.85;100.00;101809.35;105274;1259;69186;-56
2024/01/12 04:44:31;;;;;;;41.90;17.60;;;;;;;-1.84;100.00;101811.61;105359;1257;73493;-56
2024/01/12 04:46:59;;;;;;;42.70;16.70;;;;;;;-1.84;100.00;101808.70;105258;1259;81538;-55
2024/01/12 04:49:27;;;;;;;45.50;19.40;;;;;;;-1.85;100.00;101802.52;105267;1257;71646;-56
2024/01/12 04:51:56;;;;;;;36.10;15.00;;;;;;;-1.85;100.00;101805.44;105297;1257;69190;-56
2024/01/12 04:54:24;;;;;;;38.90;16.20;;;;;;;-1.84;100.00;101803.37;105275;1259;69160;-57
2024/01/12 04:56:52;;;;;;;30.80;14.00;;;;;;;-1.84;100.00;101802.70;105246;1259;75030;-56
2024/01/12 04:59:21;;;;;;;30.70;14.00;;;;;;;-1.84;100.00;101800.64;105240;1260;81667;-56
2024/01/12 05:01:49;;;;;;;33.60;14.60;;;;;;;-1.84;100.00;101801.16;105294;1259;72835;-56
2024/01/12 05:04:17;;;;;;;34.10;14.40;;;;;;;-1.85;100.00;101801.15;105274;1260;69224;-55
2024/01/12 05:06:46;;;;;;;33.00;15.60;;;;;;;-1.84;100.00;101810.23;105292;1259;69178;-56
2024/01/12 05:09:14;;;;;;;37.80;16.70;;;;;;;-1.83;100.00;101821.77;105265;1257;75219;-55
2024/01/12 05:11:42;;;;;;;40.70;16.70;;;;;;;-1.81;100.00;101821.48;105412;1260;81913;-55
2024/01/12 05:14:11;;;;;;;40.90;16.60;;;;;;;-1.80;100.00;101824.46;105199;1257;71613;-59
2024/01/12 05:16:39;;;;;;;47.50;21.70;;;;;;;-1.79;100.00;101826.88;105347;1260;69184;-58
2024/01/12 05:19:07;;;;;;;42.90;18.10;;;;;;;-1.78;100.00;101830.67;105376;1257;69106;-58
2024/01/12 05:21:36;;;;;;;40.40;17.50;;;;;;;-1.77;100.00;101831.88;105315;1257;73547;-58
2024/01/12 05:24:05;;;;;;;37.50;17.50;;;;;;;-1.77;100.00;101827.46;105204;1261;81450;-56
2024/01/12 05:26:34;;;;;;;35.90;16.30;;;;;;;-1.75;100.00;101824.77;105349;1260;72403;-58
2024/01/12 05:29:03;;;;;;;38.40;17.10;;;;;;;-1.74;100.00;101822.27;105376;1258;69207;-57
2024/01/12 05:31:32;;;;;;;37.20;17.10;;;;;;;-1.74;100.00;101826.38;105291;1260;69234;-57
2024/01/12 05:34:00;;;;;;;44.60;20.50;;;;;;;-1.73;100.00;101825.20;105304;1256;75061;-57
2024/01/12 05:36:28;;;;;;;45.50;22.00;;;;;;;-1.72;100.00;101826.23;105344;1260;81360;-57
2024/01/12 05:38:57;;;;;;;54.50;24.90;;;;;;;-1.72;100.00;101823.19;105258;1260;71967;-57
2024/01/12 05:41:25;;;;;;;46.60;21.60;;;;;;;-1.71;100.00;101823.38;105265;1259;69103;-57
2024/01/12 05:43:53;;;;;;;40.10;16.00;;;;;;;-1.71;100.00;101823.02;105317;1259;69224;-59
2024/01/12 05:46:22;;;;;;;36.90;16.20;;;;;;;-1.71;100.00;101818.25;105336;1259;74262;-55
2024/01/12 05:48:50;;;;;;;38.10;15.90;;;;;;;-1.71;100.00;101820.98;105544;1259;81501;-55
2024/01/12 05:51:20;;;;;;;34.30;14.10;;;;;;;-1.70;100.00;101824.61;105298;1259;72793;-54
2024/01/12 05:53:48;;;;;;;35.50;14.50;;;;;;;-1.70;100.00;101821.86;105407;1259;69925;-50
2024/01/12 05:56:16;;;;;;;34.60;14.80;;;;;;;-1.71;100.00;101822.50;105359;1258;69925;-48
2024/01/12 05:58:44;;;;;;;33.40;15.40;;;;;;;-1.71;100.00;101826.45;105293;1260;74165;-51
2024/01/12 06:01:12;;;;;;;42.00;16.60;;;;;;;-1.71;100.00;101828.70;105337;1259;81852;-52
2024/01/12 06:03:40;;;;;;;35.80;16.40;;;;;;;-1.69;100.00;101825.02;105237;1260;73500;-52
2024/01/12 06:06:09;;;;;;;39.70;16.60;;;;;;;-1.68;100.00;101823.16;105356;1257;69950;-48
2024/01/12 06:08:37;;;;;;;37.70;16.00;;;;;;;-1.68;100.00;101830.70;105265;1259;69891;-54
2024/01/12 06:11:06;;;;;;;37.70;14.60;;;;;;;-1.67;100.00;101834.66;105381;1259;74246;-54
2024/01/12 06:13:34;;;;;;;40.00;16.50;;;;;;;-1.68;100.00;101834.64;105416;1259;81175;-53
2024/01/12 06:16:02;;;;;;;37.60;15.70;;;;;;;-1.68;100.00;101835.34;105289;1260;73006;-52
2024/01/12 06:18:30;;;;;;;40.10;17.00;;;;;;;-1.69;100.00;101834.08;105312;1259;69302;-52
2024/01/12 06:20:59;;;;;;;37.80;15.10;;;;;;;-1.70;100.00;101835.23;105371;1257;69170;-52
2024/01/12 06:23:27;;;;;;;39.80;16.50;;;;;;;-1.72;100.00;101836.53;105390;1259;73364;-54
2024/01/12 06:25:56;;;;;;;38.30;15.90;;;;;;;-1.73;100.00;101841.30;105433;1261;81655;-54
2024/01/12 06:28:24;;;;;;;37.30;14.50;;;;;;;-1.74;100.00;101841.27;105324;1259;72167;-54
2024/01/12 06:30:55;;;;;;;37.30;16.30;;;;;;;-1.74;100.00;101840.57;105265;1259;69118;-54
2024/01/12 06:33:23;;;;;;;35.50;14.80;;;;;;;-1.76;100.00;101841.02;105258;1258;69180;-54
2024/01/12 06:35:52;;;;;;;35.40;14.90;;;;;;;-1.77;100.00;101839.09;105344;1259;73694;-48
2024/01/12 06:38:20;;;;;;;36.30;15.30;;;;;;;-1.77;100.00;101845.23;105401;1259;81879;-49
2024/01/12 06:40:49;;;;;;;45.00;16.50;;;;;;;-1.77;100.00;101838.27;105370;1259;73100;-51
2024/01/12 06:43:17;;;;;;;37.30;15.40;;;;;;;-1.77;100.00;101834.48;105429;1257;69928;-49
2024/01/12 06:45:46;;;;;;;31.60;15.50;;;;;;;-1.77;100.00;101838.58;105385;1260;69890;-48
2024/01/12 06:48:14;;;;;;;37.90;15.60;;;;;;;-1.78;100.00;101840.77;105723;1259;73593;-48
2024/01/12 06:50:43;;;;;;;33.00;13.60;;;;;;;-1.80;100.00;101838.86;105643;1259;81138;-51
2024/01/12 06:53:14;;;;;;;32.90;14.60;;;;;;;-1.79;100.00;101842.64;105275;1260;72080;-49
2024/01/12 06:55:42;;;;;;;35.00;14.90;;;;;;;-1.80;100.00;101843.15;105495;1260;69951;-53
2024/01/12 06:58:10;;;;;;;36.40;15.70;;;;;;;-1.79;100.00;101849.50;105386;1267;70002;-49
2024/01/12 07:00:38;;;;;;;39.30;17.30;;;;;;;-1.79;100.00;101854.11;105398;1259;74044;-48
2024/01/12 07:03:07;;;;;;;40.90;17.20;;;;;;;-1.80;100.00;101862.65;105366;1258;83232;-47
2024/01/12 07:05:36;;;;;;;44.60;19.10;;;;;;;-1.81;100.00;101867.09;105462;1257;72234;-54
2024/01/12 07:08:04;;;;;;;45.40;18.40;;;;;;;-1.79;100.00;101871.25;105450;1259;69947;-49
2024/01/12 07:10:32;;;;;;;44.30;17.50;;;;;;;-1.79;100.00;101867.65;105327;1261;69995;-48
2024/01/12 07:13:01;;;;;;;37.10;15.70;;;;;;;-1.78;100.00;101866.48;105353;1260;73753;-50
2024/01/12 07:15:29;;;;;;;39.90;16.10;;;;;;;-1.77;100.00;101860.52;105319;1260;80769;-49
2024/01/12 07:17:58;;;;;;;40.80;16.40;;;;;;;-1.76;100.00;101859.71;105334;1260;72264;-52
2024/01/12 07:20:27;;;;;;;36.80;17.40;;;;;;;-1.74;100.00;101856.70;105427;1260;69993;-49
2024/01/12 07:22:55;;;;;;;33.80;15.00;;;;;;;-1.71;100.00;101853.19;105313;1260;69986;-48
2024/01/12 07:25:23;;;;;;;36.00;15.80;;;;;;;-1.68;100.00;101849.38;105291;1259;73532;-48
2024/01/12 07:27:51;;;;;;;41.70;17.40;;;;;;;-1.66;100.00;101844.84;105373;1260;81034;-56
2024/01/12 07:30:19;;;;;;;44.20;16.70;;;;;;;-1.65;100.00;101843.65;105171;1257;73273;-50
2024/01/12 07:32:47;;;;;;;39.80;18.10;;;;;;;-1.63;100.00;101837.92;105296;1259;69918;-53
2024/01/12 07:35:16;;;;;;;39.30;17.60;;;;;;;-1.60;100.00;101829.96;105252;1260;69185;-50
2024/01/12 07:37:44;;;;;;;47.10;19.60;;;;;;;-1.57;100.00;101831.79;105221;1260;73668;-53
2024/01/12 07:40:12;;;;;;;46.60;23.20;;;;;;;-1.54;100.00;101828.78;105269;1258;81563;-53
2024/01/12 07:42:41;;;;;;;53.60;24.80;;;;;;;-1.51;100.00;101828.71;105071;1261;71968;-52
2024/01/12 07:45:12;;;;;;;44.80;20.80;;;;;;;-1.47;100.00;101830.05;105142;1257;69143;-52
2024/01/12 07:47:41;;;;;;;57.30;24.00;;;;;;;-1.44;100.00;101835.33;105185;1260;70017;-50
2024/01/12 07:50:09;;;;;;;56.20;26.80;;;;;;;-1.42;100.00;101836.75;105154;1258;73679;-50
2024/01/12 07:52:38;;;;;;;54.80;24.30;;;;;;;-1.38;100.00;101835.34;105214;1260;81453;-50
2024/01/12 07:55:06;;;;;;;57.60;25.60;;;;;;;-1.35;100.00;101832.20;105148;1257;71705;-50
2024/01/12 07:57:34;;;;;;;49.40;20.60;;;;;;;-1.31;100.00;101834.91;105334;1261;69963;-52
2024/01/12 08:00:05;;;;;;;49.60;20.70;;;;;;;-1.28;100.00;101837.05;105220;1262;69353;-53
2024/01/12 08:02:38;;;;;;;57.60;25.90;;;;;;;-1.26;100.00;101839.35;105182;1260;73887;-52
2024/01/12 08:05:07;;;;;;;55.30;25.10;;;;;;;-1.24;100.00;101834.09;105270;1260;81487;-52
2024/01/12 08:07:37;;;;;;;43.80;20.50;;;;;;;-1.22;100.00;101835.40;105229;1262;72003;-54
2024/01/12 08:10:06;;;;;;;46.20;22.00;;;;;;;-1.18;100.00;101836.89;105172;1261;69906;-51
2024/01/12 08:12:35;;;;;;;43.80;18.90;;;;;;;-1.16;100.00;101834.40;105234;1257;69124;-49
2024/01/12 08:15:04;;;;;;;43.40;19.20;;;;;;;-1.14;100.00;101831.91;105284;1258;74103;-53
2024/01/12 08:17:32;;;;;;;31.50;15.50;;;;;;;-1.14;100.00;101825.73;105230;1260;81567;-52
2024/01/12 08:20:00;;;;;;;29.10;15.00;;;;;;;-1.14;100.00;101831.89;105244;1260;71594;-52
2024/01/12 08:22:29;;;;;;;30.10;14.90;;;;;;;-1.13;100.00;101836.23;105143;1269;69128;-52
2024/01/12 08:24:57;;;;;;;28.90;14.70;;;;;;;-1.11;100.00;101838.67;105184;1270;69904;-52
2024/01/12 08:27:26;;;;;;;26.10;13.50;;;;;;;-1.09;100.00;101843.72;105344;1258;74857;-51
2024/01/12 08:29:55;;;;;;;27.90;12.30;;;;;;;-1.08;100.00;101843.23;105277;1261;79942;-55
2024/01/12 08:32:23;;;;;;;25.20;12.70;;;;;;;-1.08;100.00;101843.58;105329;1260;71731;-54
2024/01/12 08:34:52;;;;;;;21.60;11.40;;;;;;;-1.08;100.00;101838.27;105231;1260;69180;-54
2024/01/12 08:37:20;;;;;;;23.80;12.20;;;;;;;-1.09;100.00;101829.11;105160;1261;69183;-55
2024/01/12 08:39:48;;;;;;;22.40;11.30;;;;;;;-1.11;100.00;101825.12;105150;1260;72664;-51
2024/01/12 08:42:17;;;;;;;19.30;10.00;;;;;;;-1.09;100.00;101822.61;105212;1260;81830;-52
2024/01/12 08:44:45;;;;;;;27.40;13.80;;;;;;;-1.01;100.00;101817.72;105252;1257;71925;-55
2024/01/12 08:47:13;;;;;;;22.90;11.40;;;;;;;-0.95;100.00;101814.33;105169;1260;69174;-55
2024/01/12 08:49:42;;;;;;;21.30;10.50;;;;;;;-0.88;100.00;101811.48;105247;1260;69079;-53
2024/01/12 08:52:10;;;;;;;20.80;9.90;;;;;;;-0.79;100.00;101814.14;105184;1260;73856;-54
2024/01/12 08:54:38;;;;;;;19.30;10.10;;;;;;;-0.75;100.00;101816.02;105182;1257;81253;-55
2024/01/12 08:57:06;;;;;;;26.40;11.40;;;;;;;-0.72;100.00;101815.77;105174;1258;71916;-52
2024/01/12 08:59:34;;;;;;;19.70;10.40;;;;;;;-0.71;100.00;101810.48;105194;1257;69186;-54
2024/01/12 09:02:02;;;;;;;20.60;10.20;;;;;;;-0.69;100.00;101808.30;105293;1261;69161;-56
2024/01/12 09:04:31;;;;;;;25.70;11.10;;;;;;;-0.71;100.00;101803.59;105187;1257;74037;-55
2024/01/12 09:07:00;;;;;;;20.90;10.30;;;;;;;-0.71;100.00;101796.73;105210;1256;81243;-53
2024/01/12 09:09:28;;;;;;;20.40;11.00;;;;;;;-0.71;100.00;101795.17;105188;1260;71840;-54
2024/01/12 09:11:57;;;;;;;21.40;10.20;;;;;;;-0.71;100.00;101799.65;105292;1260;69205;-54
2024/01/12 09:14:25;;;;;;;21.50;11.10;;;;;;;-0.69;100.00;101806.76;105289;1260;69141;-56
2024/01/12 09:16:53;;;;;;;26.30;11.40;;;;;;;-0.64;100.00;101804.52;105213;1260;73566;-55
2024/01/12 09:19:21;;;;;;;20.70;9.60;;;;;;;-0.62;100.00;101799.59;105198;1261;83002;-56
2024/01/12 09:21:49;;;;;;;17.50;9.80;;;;;;;-0.61;100.00;101797.90;105243;1260;71711;-55
2024/01/12 09:24:18;;;;;;;19.20;9.00;;;;;;;-0.60;100.00;101803.95;105196;1260;69300;-55
2024/01/12 09:26:46;;;;;;;20.80;9.10;;;;;;;-0.63;100.00;101809.85;105251;1260;69212;-57
2024/01/12 09:29:15;;;;;;;19.90;8.80;;;;;;;-0.63;100.00;101814.84;105229;1260;74830;-56
2024/01/12 09:31:43;;;;;;;18.60;9.10;;;;;;;-0.64;100.00;101817.88;105203;1260;82058;-54
2024/01/12 09:34:11;;;;;;;20.20;9.70;;;;;;;-0.65;100.00;101817.86;105206;1260;72265;-56
2024/01/12 09:36:40;;;;;;;19.10;9.60;;;;;;;-0.65;100.00;101816.30;105145;1257;69348;-55
2024/01/12 09:39:14;;;;;;;21.40;10.10;;;;;;;-0.66;100.00;101812.36;105276;1260;69129;-53
2024/01/12 09:41:47;;;;;;;19.80;9.20;;;;;;;-0.65;100.00;101808.40;105200;1261;73778;-56
2024/01/12 09:44:22;;;;;;;16.80;8.00;;;;;;;-0.69;100.00;101809.85;105312;1258;81450;-57
2024/01/12 09:46:58;;;;;;;16.40;8.10;;;;;;;-0.73;100.00;101808.16;105242;1257;73140;-54
2024/01/12 09:49:28;;;;;;;12.20;6.80;;;;;;;-0.73;100.00;101806.10;105309;1260;69078;-52
2024/01/12 09:52:03;;;;;;;19.40;9.00;;;;;;;-0.76;100.00;101807.39;105252;1257;69183;-54
2024/01/12 09:54:31;;;;;;;16.90;8.10;;;;;;;-0.80;100.00;101813.10;105218;1257;73677;-54
2024/01/12 09:56:59;;;;;;;16.40;8.10;;;;;;;-0.80;100.00;101818.59;105203;1260;81773;-51
2024/01/12 09:59:28;;;;;;;13.30;7.60;;;;;;;-0.77;100.00;101824.70;105251;1260;70908;-54
2024/01/12 10:01:57;;;;;;;15.70;7.60;;;;;;;-0.76;100.00;101821.80;105301;1257;69933;-51
2024/01/12 10:04:26;;;;;;;15.90;7.80;;;;;;;-0.75;100.00;101811.69;105284;1260;69250;-52
2024/01/12 10:06:55;;;;;;;20.40;9.00;;;;;;;-0.74;100.00;101818.10;105220;1257;73747;-56
2024/01/12 10:09:24;;;;;;;18.60;8.30;;;;;;;-0.71;100.00;101820.58;105329;1257;82019;-55
2024/01/12 10:11:54;;;;;;;14.20;6.80;;;;;;;-0.70;100.00;101816.52;105263;1257;70131;-57
2024/01/12 10:14:25;;;;;;;12.50;6.70;;;;;;;-0.72;100.00;101815.77;105254;1261;69164;-52
2024/01/12 10:16:55;;;;;;;17.50;8.20;;;;;;;-0.71;100.00;101813.89;105284;1260;69212;-52
2024/01/12 10:19:24;;;;;;;14.60;7.90;;;;;;;-0.72;100.00;101806.67;105254;1261;73106;-52
2024/01/12 10:21:53;;;;;;;18.40;9.30;;;;;;;-0.74;100.00;101804.02;105229;1261;81762;-53
2024/01/12 10:24:21;;;;;;;14.00;8.00;;;;;;;-0.75;100.00;101799.17;105190;1261;71648;-51
2024/01/12 10:26:52;;;;;;;16.90;9.00;;;;;;;-0.73;100.00;101798.40;105305;1258;69187;-54
2024/01/12 10:29:20;;;;;;;;;;;;;;;-0.70;100.00;101792.66;105235;1260;69141;-54
2024/01/12 10:31:49;;;;;;;15.80;7.90;;;;;;;-0.68;100.00;101792.37;105244;1260;73816;-54
2024/01/12 10:34:17;;;;;;;18.30;8.90;;;;;;;-0.70;100.00;101785.61;105218;1257;82961;-54
2024/01/12 10:36:49;;;;;;;18.00;8.60;;;;;;;-0.69;100.00;101785.80;105226;1260;72249;-55
2024/01/12 10:39:19;;;;;;;17.40;8.00;;;;;;;-0.71;100.00;101780.62;105221;1258;69120;-52
2024/01/12 10:41:47;;;;;;;15.40;7.60;;;;;;;-0.70;100.00;101779.09;104996;1257;267090;-53
2024/01/12 10:44:15;;;;;;;18.40;8.30;;;;;;;-0.71;100.00;101767.21;105190;1257;74108;-52
2024/01/12 10:46:48;;;;;;;22.90;10.30;;;;;;;-0.71;100.00;101766.01;105159;1261;81847;-54
2024/01/12 10:49:21;;;;;;;17.90;9.30;;;;;;;-0.71;100.00;101764.80;105233;1258;70083;-52
2024/01/12 10:52:28;;;;;;;17.50;8.70;;;;;;;-0.74;100.00;101759.05;105192;1260;69292;-54
2024/01/12 10:55:04;;;;;;;20.30;9.50;;;;;;;-0.79;100.00;101761.80;105203;1260;69122;-53
2024/01/12 10:57:33;;;;;;;19.80;8.90;;;;;;;-0.79;100.00;101765.25;105230;1258;73694;-52
2024/01/12 11:00:04;;;;;;;25.10;10.60;;;;;;;-0.78;100.00;101760.64;105288;1260;82919;-55
2024/01/12 11:02:34;;;;;;;21.20;10.30;;;;;;;-0.76;100.00;101750.90;105188;1260;70475;-52